Time;durP1;ratioP1;P1;durP2;ratioP2;P2;SDS_P1;SDS_P2;PMS_P1;PMS_P2;Temp;Humidity;BMP_temperature;BMP_pressure;BME280_temperature;BME280_humidity;BME280_pressure;Samples;Min_cycle;Max_cycle;Signal;HPM_P1;HPM_P2
2021/12/07 00:01:09;;;;;;;27.93;15.10;;;2.00;99.90;;;;;;5043041;28;20215;-45
2021/12/07 00:03:37;;;;;;;25.83;13.67;;;2.00;99.90;;;;;;5056325;28;20220;-45
2021/12/07 00:06:04;;;;;;;25.57;14.37;;;2.00;99.90;;;;;;5050150;28;20195;-45
2021/12/07 00:08:33;;;;;;;25.67;14.50;;;2.00;99.90;;;;;;5035969;28;20208;-46
2021/12/07 00:11:00;;;;;;;26.67;14.87;;;2.00;99.90;;;;;;5069362;28;20311;-45
2021/12/07 00:13:32;;;;;;;25.50;14.37;;;2.00;99.90;;;;;;5030078;28;20238;-45
2021/12/07 00:15:59;;;;;;;22.57;13.53;;;2.00;99.90;;;;;;5057544;28;20239;-46
2021/12/07 00:18:26;;;;;;;24.27;13.97;;;2.00;99.90;;;;;;5063280;28;20329;-45
2021/12/07 00:20:53;;;;;;;25.80;13.60;;;2.00;99.90;;;;;;5052414;28;20212;-45
2021/12/07 00:23:20;;;;;;;24.37;14.47;;;1.90;99.90;;;;;;5047220;28;20227;-46
2021/12/07 00:25:49;;;;;;;27.97;13.57;;;1.90;99.90;;;;;;5029205;28;20212;-45
2021/12/07 00:28:19;;;;;;;27.10;14.93;;;1.90;99.90;;;;;;5046185;28;20304;-46
2021/12/07 00:30:47;;;;;;;27.33;13.47;;;1.90;99.90;;;;;;5053433;28;20545;-45
2021/12/07 00:33:19;;;;;;;33.57;15.03;;;1.90;99.90;;;;;;5045566;28;20245;-45
2021/12/07 00:35:46;;;;;;;24.43;13.67;;;2.00;99.90;;;;;;5058683;28;20220;-46
2021/12/07 00:38:16;;;;;;;28.07;15.53;;;1.90;99.90;;;;;;5048284;28;21051;-47
2021/12/07 00:40:44;;;;;;;25.97;13.80;;;2.00;99.90;;;;;;5033985;28;20705;-46
2021/12/07 00:43:14;;;;;;;28.03;14.73;;;1.90;99.90;;;;;;5060527;28;20225;-47
2021/12/07 00:45:45;;;;;;;25.33;14.37;;;1.90;99.90;;;;;;5036523;28;20319;-46
2021/12/07 00:48:13;;;;;;;28.47;14.43;;;1.90;99.90;;;;;;5059644;28;20335;-46
2021/12/07 00:50:42;;;;;;;24.60;13.20;;;2.00;99.90;;;;;;5050317;28;20212;-46
2021/12/07 00:53:10;;;;;;;22.93;13.83;;;2.00;99.90;;;;;;5049896;28;20240;-47
2021/12/07 00:55:40;;;;;;;27.73;14.70;;;1.90;99.90;;;;;;5038226;28;20226;-46
2021/12/07 00:58:16;;;;;;;28.30;14.33;;;1.90;99.90;;;;;;5039643;28;20223;-41
2021/12/07 01:00:45;;;;;;;30.80;14.20;;;1.90;99.90;;;;;;5038069;28;20569;-41
2021/12/07 01:03:12;;;;;;;24.37;14.50;;;1.90;99.90;;;;;;5039932;28;20240;-41
2021/12/07 01:05:46;;;;;;;24.77;14.43;;;1.90;99.90;;;;;;5052364;28;20200;-41
2021/12/07 01:08:22;;;;;;;28.17;14.53;;;2.00;99.90;;;;;;5048491;28;20259;-43
2021/12/07 01:24:42;;;;;;;29.07;14.10;;;2.00;99.90;;;;;;5044973;28;20314;-41
2021/12/07 01:27:11;;;;;;;23.77;13.17;;;2.00;99.90;;;;;;5031967;28;20218;-41
2021/12/07 01:29:39;;;;;;;25.97;14.07;;;2.00;99.90;;;;;;5048904;28;21329;-41
2021/12/07 01:32:18;;;;;;;27.90;14.13;;;2.00;99.90;;;;;;5045995;28;20214;-41
2021/12/07 01:35:24;;;;;;;34.63;14.27;;;2.00;99.90;;;;;;5065681;28;20212;-41
2021/12/07 01:38:04;;;;;;;26.20;13.80;;;2.00;99.90;;;;;;5045900;28;20282;-41
2021/12/07 01:40:58;;;;;;;27.03;13.70;;;2.00;99.90;;;;;;5048050;28;20216;-41
2021/12/07 01:57:55;;;;;;;24.50;13.13;;;1.90;99.90;;;;;;4930745;28;20206;-41
2021/12/07 02:00:26;;;;;;;28.27;13.33;;;1.90;99.90;;;;;;5033296;28;20291;-41
2021/12/07 02:02:53;;;;;;;30.77;13.10;;;1.90;99.90;;;;;;5045389;28;20601;-45
2021/12/07 02:05:21;;;;;;;24.50;12.87;;;1.90;99.90;;;;;;5057379;28;20543;-45
2021/12/07 02:07:48;;;;;;;25.60;13.90;;;1.90;99.90;;;;;;5052135;28;20209;-45
2021/12/07 02:10:19;;;;;;;30.20;13.93;;;2.00;99.90;;;;;;5064132;28;20205;-45
2021/12/07 02:12:49;;;;;;;23.23;12.87;;;2.00;99.90;;;;;;5030583;28;25723;-45
2021/12/07 02:15:18;;;;;;;23.53;13.93;;;1.90;99.90;;;;;;5068663;28;21495;-45
2021/12/07 02:17:46;;;;;;;25.13;12.40;;;1.90;99.90;;;;;;5042320;28;20215;-45
2021/12/07 02:20:14;;;;;;;26.57;13.53;;;1.90;99.90;;;;;;5040567;28;20220;-45
2021/12/07 02:22:43;;;;;;;23.53;12.50;;;1.90;99.90;;;;;;5057529;28;21304;-45
2021/12/07 02:25:13;;;;;;;28.37;13.50;;;1.90;99.90;;;;;;5052283;28;20208;-44
2021/12/07 02:27:40;;;;;;;24.97;13.77;;;1.90;99.90;;;;;;5038662;28;20197;-45
2021/12/07 02:30:10;;;;;;;26.67;14.60;;;1.90;99.90;;;;;;5021967;28;20205;-45
2021/12/07 02:32:37;;;;;;;25.47;13.27;;;1.90;99.90;;;;;;5040961;28;20215;-46
2021/12/07 02:35:05;;;;;;;26.37;13.30;;;1.90;99.90;;;;;;5039989;28;20233;-45
2021/12/07 02:37:35;;;;;;;23.73;13.17;;;1.80;99.90;;;;;;5043247;28;20209;-45
2021/12/07 02:40:07;;;;;;;24.37;13.37;;;1.80;99.90;;;;;;5035081;28;20308;-45
2021/12/07 02:42:34;;;;;;;24.40;12.47;;;1.80;99.90;;;;;;5049804;28;20599;-45
2021/12/07 02:45:04;;;;;;;29.57;13.47;;;1.90;99.90;;;;;;5037683;28;20212;-45
2021/12/07 02:47:34;;;;;;;22.70;13.17;;;1.80;99.90;;;;;;5063516;28;20208;-46
2021/12/07 02:50:01;;;;;;;25.77;13.13;;;1.90;99.90;;;;;;5035793;28;20211;-46
2021/12/07 02:52:28;;;;;;;28.60;13.80;;;1.90;99.90;;;;;;5055621;28;20211;-46
2021/12/07 02:54:55;;;;;;;25.43;13.07;;;1.80;99.90;;;;;;5053041;28;20206;-45
2021/12/07 02:57:23;;;;;;;23.90;12.90;;;1.90;99.90;;;;;;5051336;28;20208;-46
2021/12/07 02:59:58;;;;;;;24.67;13.37;;;1.90;99.90;;;;;;5029401;28;20223;-45
2021/12/07 03:02:26;;;;;;;27.53;14.53;;;1.90;99.90;;;;;;5060753;28;20637;-45
2021/12/07 03:05:00;;;;;;;23.07;13.07;;;1.90;99.90;;;;;;5048523;28;20213;-45
2021/12/07 03:07:44;;;;;;;22.17;13.23;;;1.90;99.90;;;;;;5048307;28;20212;-46
2021/12/07 03:26:36;;;;;;;25.93;13.10;;;1.90;99.90;;;;;;5059456;28;20260;-41
2021/12/07 03:29:05;;;;;;;25.20;13.33;;;1.90;99.90;;;;;;5054403;28;20215;-42
2021/12/07 03:31:32;;;;;;;25.93;12.70;;;1.90;99.90;;;;;;5032249;28;20220;-41
2021/12/07 03:34:01;;;;;;;26.27;14.43;;;1.90;99.90;;;;;;5063367;28;20222;-41
2021/12/07 03:36:29;;;;;;;25.53;13.43;;;1.90;99.90;;;;;;5057165;28;20220;-41
2021/12/07 03:38:56;;;;;;;20.47;11.63;;;1.90;99.90;;;;;;5034796;28;20210;-41
2021/12/07 03:41:23;;;;;;;24.43;12.23;;;1.90;99.90;;;;;;5062293;28;20205;-41
2021/12/07 03:43:51;;;;;;;31.37;13.27;;;1.90;99.90;;;;;;5047516;28;20286;-41
2021/12/07 03:46:19;;;;;;;21.77;12.83;;;1.80;99.90;;;;;;5050488;28;20221;-41
2021/12/07 03:48:46;;;;;;;23.80;12.60;;;1.90;99.90;;;;;;5057362;28;20282;-41
2021/12/07 03:51:14;;;;;;;27.03;13.03;;;1.90;99.90;;;;;;5040664;28;20206;-41
2021/12/07 03:53:41;;;;;;;24.57;12.93;;;1.90;99.90;;;;;;5060356;28;20227;-41
2021/12/07 03:56:09;;;;;;;23.27;12.40;;;1.90;99.90;;;;;;5044953;28;20220;-42
2021/12/07 03:58:37;;;;;;;27.73;12.80;;;1.90;99.90;;;;;;5056182;28;20927;-41
2021/12/07 04:01:05;;;;;;;25.27;12.70;;;1.90;99.90;;;;;;5027851;28;20225;-41
2021/12/07 04:03:35;;;;;;;22.23;12.57;;;1.90;99.90;;;;;;5053893;28;20661;-41
2021/12/07 04:06:05;;;;;;;25.17;13.00;;;1.90;99.90;;;;;;5056023;28;20206;-41
2021/12/07 04:08:34;;;;;;;23.83;13.50;;;1.90;99.90;;;;;;5050851;28;20767;-41
2021/12/07 04:11:02;;;;;;;25.47;12.93;;;1.90;99.90;;;;;;5041642;28;20211;-42
2021/12/07 04:13:29;;;;;;;26.13;12.97;;;1.80;99.90;;;;;;5062237;28;20214;-41
2021/12/07 04:15:57;;;;;;;25.63;12.93;;;1.90;99.90;;;;;;5035861;28;20268;-41
2021/12/07 04:18:25;;;;;;;25.83;12.83;;;1.90;99.90;;;;;;5039085;28;20205;-41
2021/12/07 04:20:54;;;;;;;23.00;12.57;;;1.90;99.90;;;;;;5065967;28;20215;-41
2021/12/07 04:23:21;;;;;;;24.77;13.07;;;1.80;99.90;;;;;;5039877;28;21011;-42
2021/12/07 04:25:48;;;;;;;25.67;13.13;;;1.80;99.90;;;;;;5060613;28;20203;-41
2021/12/07 04:28:15;;;;;;;23.03;12.93;;;1.90;99.90;;;;;;5033373;28;20256;-41
2021/12/07 04:30:43;;;;;;;24.13;13.00;;;1.90;99.90;;;;;;5061715;28;21520;-41
2021/12/07 04:33:12;;;;;;;26.17;14.33;;;1.90;99.90;;;;;;5022827;28;20385;-42
2021/12/07 04:35:43;;;;;;;26.43;13.83;;;1.80;99.90;;;;;;5061201;28;20226;-41
2021/12/07 04:38:12;;;;;;;25.37;13.10;;;1.80;99.90;;;;;;5048873;28;20196;-41
2021/12/07 04:40:39;;;;;;;25.47;12.93;;;1.90;99.90;;;;;;5049560;28;20208;-41
2021/12/07 04:43:07;;;;;;;25.43;14.23;;;1.90;99.90;;;;;;5049055;28;20744;-41
2021/12/07 04:45:47;;;;;;;26.27;13.87;;;1.90;99.90;;;;;;5053928;28;20277;-41
2021/12/07 04:48:37;;;;;;;28.50;13.67;;;1.80;99.90;;;;;;5015438;28;20213;-41
2021/12/07 04:59:19;;;;;;;24.47;13.03;;;1.90;99.90;;;;;;5037403;28;20243;-41
2021/12/07 05:01:48;;;;;;;21.77;12.43;;;1.90;99.90;;;;;;5025641;28;24474;-41
2021/12/07 05:04:19;;;;;;;26.73;13.50;;;1.90;99.90;;;;;;5048298;28;20637;-42
2021/12/07 05:06:49;;;;;;;20.63;12.20;;;1.90;99.90;;;;;;5044638;28;20242;-41
2021/12/07 05:09:34;;;;;;;26.60;12.90;;;1.90;99.90;;;;;;5049641;28;20289;-42
2021/12/07 05:12:21;;;;;;;24.20;13.57;;;1.90;99.90;;;;;;5040083;28;21817;-42
2021/12/07 05:14:58;;;;;;;27.00;12.80;;;2.00;99.90;;;;;;5034353;28;20294;-41
2021/12/07 05:17:41;;;;;;;23.37;13.33;;;2.00;99.90;;;;;;5019304;28;20229;-41
2021/12/07 05:26:07;;;;;;;22.27;12.73;;;2.00;99.90;;;;;;5053027;28;20212;-41
2021/12/07 05:39:43;;;;;;;22.80;11.57;;;2.00;99.90;;;;;;5031190;28;20214;-42
2021/12/07 05:42:13;;;;;;;27.87;12.57;;;2.00;99.90;;;;;;5048143;28;20698;-42
2021/12/07 05:44:40;;;;;;;25.40;12.67;;;2.10;99.90;;;;;;5045859;28;20652;-41
2021/12/07 05:47:07;;;;;;;24.20;12.83;;;2.10;99.90;;;;;;5035413;28;20205;-41
2021/12/07 05:49:35;;;;;;;20.10;12.83;;;2.10;99.90;;;;;;5035072;28;20232;-41
2021/12/07 05:52:04;;;;;;;23.20;12.50;;;2.10;99.90;;;;;;5036545;28;21259;-41
2021/12/07 05:54:31;;;;;;;22.20;12.50;;;2.10;99.90;;;;;;5044294;28;20236;-41
2021/12/07 05:56:58;;;;;;;22.60;12.50;;;2.10;99.90;;;;;;5039911;28;20228;-42
2021/12/07 05:59:26;;;;;;;20.57;12.20;;;2.10;99.90;;;;;;5041223;28;20221;-42
2021/12/07 06:01:53;;;;;;;23.60;13.33;;;2.10;99.90;;;;;;5012522;28;21377;-42
2021/12/07 06:04:20;;;;;;;24.60;12.53;;;2.10;99.90;;;;;;5036830;28;20225;-41
2021/12/07 06:06:47;;;;;;;19.20;11.93;;;2.10;99.90;;;;;;5047153;28;21016;-42
2021/12/07 06:09:14;;;;;;;20.57;11.60;;;2.00;99.90;;;;;;5032760;28;20205;-42
2021/12/07 06:11:42;;;;;;;23.53;13.30;;;2.10;99.90;;;;;;5038838;28;20214;-42
2021/12/07 06:14:11;;;;;;;23.63;12.63;;;2.10;99.90;;;;;;5042885;28;20254;-41
2021/12/07 06:16:39;;;;;;;22.33;13.10;;;2.10;99.90;;;;;;5060584;28;20377;-42
2021/12/07 06:19:06;;;;;;;23.63;12.60;;;2.10;99.90;;;;;;5024825;28;20211;-42
2021/12/07 06:21:33;;;;;;;26.73;13.60;;;2.10;99.90;;;;;;5043369;28;20725;-41
2021/12/07 06:23:59;;;;;;;20.97;12.47;;;2.10;99.90;;;;;;5042903;28;20235;-45
2021/12/07 06:26:26;;;;;;;24.23;12.90;;;2.10;99.90;;;;;;5048744;28;20203;-42
2021/12/07 06:28:53;;;;;;;21.70;13.30;;;2.10;99.90;;;;;;5046995;28;20214;-42
2021/12/07 06:31:20;;;;;;;25.83;13.40;;;2.10;99.90;;;;;;5055991;28;20209;-41
2021/12/07 06:33:48;;;;;;;25.40;13.47;;;2.10;99.90;;;;;;5044130;28;20236;-42
2021/12/07 06:36:15;;;;;;;26.23;13.13;;;2.10;99.90;;;;;;5034569;28;20238;-42
2021/12/07 06:38:44;;;;;;;27.60;13.63;;;2.10;99.90;;;;;;5049856;28;21049;-41
2021/12/07 06:41:11;;;;;;;24.83;13.33;;;2.10;99.90;;;;;;5049244;28;20853;-42
2021/12/07 06:43:38;;;;;;;24.20;12.93;;;2.10;99.90;;;;;;5040191;28;20240;-41
2021/12/07 06:46:05;;;;;;;24.47;12.47;;;2.10;99.90;;;;;;5039144;28;20218;-41
2021/12/07 06:48:32;;;;;;;22.30;12.70;;;2.10;99.90;;;;;;5046357;28;20215;-42
2021/12/07 06:51:00;;;;;;;25.73;13.37;;;2.10;99.90;;;;;;5054942;28;20210;-41
2021/12/07 06:53:29;;;;;;;21.93;13.43;;;2.10;99.90;;;;;;5040899;28;20220;-42
2021/12/07 06:55:56;;;;;;;22.70;13.63;;;2.20;99.90;;;;;;5051425;28;20231;-42
2021/12/07 06:58:23;;;;;;;23.13;13.23;;;2.10;99.90;;;;;;5047367;28;20205;-42
2021/12/07 07:00:50;;;;;;;24.13;12.80;;;2.20;99.90;;;;;;5038989;28;20214;-41
2021/12/07 07:03:17;;;;;;;23.23;12.40;;;2.10;99.90;;;;;;5069284;28;20229;-50
2021/12/07 07:05:44;;;;;;;23.03;12.97;;;2.10;99.90;;;;;;5046468;28;20205;-41
2021/12/07 07:08:12;;;;;;;23.10;12.73;;;2.10;99.90;;;;;;5050646;28;20212;-42
2021/12/07 07:10:39;;;;;;;27.53;12.70;;;2.20;99.90;;;;;;5058364;28;20300;-41
2021/12/07 07:13:06;;;;;;;22.20;13.10;;;2.20;99.90;;;;;;5064905;28;20239;-41
2021/12/07 07:15:33;;;;;;;22.00;14.30;;;2.20;99.90;;;;;;5026944;28;20233;-41
2021/12/07 07:18:00;;;;;;;22.37;12.63;;;2.20;99.90;;;;;;5040423;28;20878;-41
2021/12/07 07:20:28;;;;;;;23.10;13.40;;;2.20;99.90;;;;;;5033272;28;20235;-42
2021/12/07 07:22:55;;;;;;;22.27;13.33;;;2.20;99.90;;;;;;5047225;28;21646;-41
2021/12/07 07:25:23;;;;;;;23.63;13.03;;;2.20;99.90;;;;;;5064226;28;20206;-42
2021/12/07 07:27:50;;;;;;;22.47;13.53;;;2.20;99.90;;;;;;5046824;28;20208;-41
2021/12/07 07:30:19;;;;;;;26.63;13.23;;;2.20;99.90;;;;;;5055321;28;20221;-42
2021/12/07 07:32:47;;;;;;;23.70;12.67;;;2.20;99.90;;;;;;5047844;28;20966;-42
2021/12/07 07:35:18;;;;;;;22.43;13.57;;;2.20;99.90;;;;;;5037986;28;20206;-41
2021/12/07 07:37:46;;;;;;;25.77;12.73;;;2.20;99.90;;;;;;5041966;28;20314;-42
2021/12/07 07:40:17;;;;;;;25.77;13.50;;;2.20;99.90;;;;;;5056964;28;20255;-41
2021/12/07 07:42:45;;;;;;;24.53;14.53;;;2.20;99.90;;;;;;5053570;28;20205;-41
2021/12/07 07:45:13;;;;;;;26.40;13.43;;;2.20;99.90;;;;;;5038796;28;20210;-41
2021/12/07 07:47:40;;;;;;;23.37;13.67;;;2.30;99.90;;;;;;5053784;28;21873;-42
2021/12/07 07:50:10;;;;;;;23.00;13.67;;;2.30;99.90;;;;;;5041546;28;20209;-41
2021/12/07 07:52:37;;;;;;;23.50;14.20;;;2.30;99.90;;;;;;5061575;28;20580;-42
2021/12/07 07:55:05;;;;;;;26.10;13.83;;;2.20;99.90;;;;;;5035284;28;20213;-41
2021/12/07 07:57:32;;;;;;;20.90;12.87;;;2.30;99.90;;;;;;5029631;28;20229;-41
2021/12/07 08:00:00;;;;;;;25.43;13.83;;;2.30;99.90;;;;;;5053696;28;20218;-45
2021/12/07 08:02:27;;;;;;;18.57;11.83;;;2.30;99.90;;;;;;5047485;28;20226;-42
2021/12/07 08:04:54;;;;;;;23.97;13.37;;;2.30;99.90;;;;;;5040374;28;20210;-42
2021/12/07 08:07:21;;;;;;;21.70;12.93;;;2.30;99.90;;;;;;5053206;28;20208;-42
2021/12/07 08:09:48;;;;;;;24.70;13.40;;;2.30;99.90;;;;;;5049257;28;20634;-41
2021/12/07 08:12:15;;;;;;;24.93;13.73;;;2.40;99.90;;;;;;5044120;28;20219;-41
2021/12/07 08:14:41;;;;;;;21.53;13.00;;;2.40;99.90;;;;;;5060016;28;20225;-42
2021/12/07 08:17:10;;;;;;;24.53;13.03;;;2.40;99.90;;;;;;5039672;28;20228;-41
2021/12/07 08:19:37;;;;;;;25.37;13.87;;;2.40;99.90;;;;;;5051948;28;20219;-42
2021/12/07 08:22:04;;;;;;;23.57;14.17;;;2.40;99.90;;;;;;5047545;28;20332;-42
2021/12/07 08:24:31;;;;;;;25.77;13.63;;;2.40;99.90;;;;;;5053624;28;20226;-42
2021/12/07 08:26:58;;;;;;;22.60;12.90;;;2.40;99.90;;;;;;5037182;28;20218;-42
2021/12/07 08:29:25;;;;;;;21.90;13.37;;;2.40;99.90;;;;;;5049196;28;20210;-41
2021/12/07 08:31:52;;;;;;;21.90;13.17;;;2.40;99.90;;;;;;5058659;28;20574;-42
2021/12/07 08:34:20;;;;;;;20.33;12.83;;;2.40;99.90;;;;;;5045804;28;22737;-42
2021/12/07 08:36:47;;;;;;;20.80;13.13;;;2.50;99.90;;;;;;5044554;28;20204;-42
2021/12/07 08:39:15;;;;;;;23.40;13.70;;;2.50;99.90;;;;;;5058607;28;20205;-42
2021/12/07 08:41:42;;;;;;;20.93;12.63;;;2.50;99.90;;;;;;5038549;28;20207;-41
2021/12/07 08:44:09;;;;;;;21.50;13.53;;;2.50;99.90;;;;;;5052520;28;20825;-42
2021/12/07 08:46:36;;;;;;;20.97;12.63;;;2.50;99.90;;;;;;5073958;28;20199;-41
2021/12/07 08:49:03;;;;;;;24.57;13.83;;;2.60;99.90;;;;;;5053226;28;20225;-41
2021/12/07 08:51:32;;;;;;;23.47;14.07;;;2.60;99.90;;;;;;5056862;28;20200;-42
2021/12/07 08:54:15;;;;;;;23.47;13.90;;;2.60;99.90;;;;;;5037739;28;20227;-41
2021/12/07 08:59:42;;;;;;;23.80;13.60;;;2.60;99.90;;;;;;5059348;28;20630;-41
2021/12/07 09:02:09;;;;;;;21.07;13.43;;;2.60;99.90;;;;;;5057862;28;20215;-42
2021/12/07 09:04:36;;;;;;;24.17;13.53;;;2.60;99.90;;;;;;5054356;28;20223;-41
2021/12/07 09:07:06;;;;;;;25.20;14.00;;;2.70;99.90;;;;;;5043982;28;20693;-41
2021/12/07 09:09:33;;;;;;;25.53;13.97;;;2.70;99.90;;;;;;5045402;28;20218;-41
2021/12/07 09:12:00;;;;;;;23.63;14.40;;;2.70;99.90;;;;;;5049228;28;20328;-41
2021/12/07 09:14:29;;;;;;;22.80;13.53;;;2.70;99.90;;;;;;5039823;28;20246;-42
2021/12/07 09:16:56;;;;;;;20.27;13.07;;;2.70;99.90;;;;;;5049878;28;20900;-41
2021/12/07 09:19:23;;;;;;;27.03;15.00;;;2.80;99.90;;;;;;5048388;28;20205;-42
2021/12/07 09:21:50;;;;;;;24.67;14.77;;;2.80;99.90;;;;;;5048076;28;20693;-42
2021/12/07 09:24:19;;;;;;;24.90;14.57;;;2.80;99.90;;;;;;5050191;28;21012;-42
2021/12/07 09:26:46;;;;;;;26.00;13.73;;;2.80;99.90;;;;;;5034121;28;20259;-42
2021/12/07 09:29:13;;;;;;;22.30;13.60;;;2.80;99.90;;;;;;5055187;28;20221;-42
2021/12/07 09:31:40;;;;;;;28.07;14.90;;;2.90;99.90;;;;;;5046899;28;20218;-42
2021/12/07 09:34:07;;;;;;;23.97;14.50;;;2.90;99.90;;;;;;5052282;28;21322;-42
2021/12/07 09:36:36;;;;;;;28.27;14.73;;;2.90;99.90;;;;;;5070802;28;20852;-42
2021/12/07 09:39:04;;;;;;;29.80;15.53;;;2.90;99.90;;;;;;5034932;28;20224;-42
2021/12/07 09:41:33;;;;;;;29.77;14.13;;;2.90;99.90;;;;;;5069048;28;20210;-42
2021/12/07 09:44:00;;;;;;;26.30;13.80;;;2.90;99.90;;;;;;5036927;28;20272;-42
2021/12/07 09:46:27;;;;;;;22.97;14.10;;;3.00;99.90;;;;;;5055265;28;20220;-41
2021/12/07 09:48:55;;;;;;;26.00;14.43;;;2.90;99.90;;;;;;5039754;28;20210;-42
2021/12/07 09:51:24;;;;;;;26.00;14.83;;;3.00;99.90;;;;;;5067640;28;20227;-42
2021/12/07 09:53:53;;;;;;;27.50;16.60;;;3.00;99.90;;;;;;5054824;28;20722;-41
2021/12/07 09:56:21;;;;;;;26.87;16.07;;;3.00;99.90;;;;;;5050839;28;20235;-42
2021/12/07 09:58:50;;;;;;;25.57;16.20;;;3.00;99.90;;;;;;5050410;28;20223;-42
2021/12/07 10:01:18;;;;;;;30.17;15.23;;;3.10;99.90;;;;;;5056172;28;20212;-41
2021/12/07 10:03:45;;;;;;;23.13;14.53;;;3.10;99.90;;;;;;5064343;28;20228;-42
2021/12/07 10:06:12;;;;;;;28.80;15.07;;;3.10;99.90;;;;;;5054240;28;20205;-42
2021/12/07 10:08:39;;;;;;;28.77;15.00;;;3.10;99.90;;;;;;5051041;28;20206;-42
2021/12/07 10:11:09;;;;;;;25.60;15.03;;;3.10;99.90;;;;;;5044357;28;20945;-41
2021/12/07 10:13:38;;;;;;;27.13;14.93;;;3.10;99.90;;;;;;5063026;28;20306;-42
2021/12/07 10:16:08;;;;;;;23.37;14.97;;;3.20;99.90;;;;;;5022316;28;20227;-42
2021/12/07 10:18:37;;;;;;;22.37;13.87;;;3.20;99.90;;;;;;5054495;28;20212;-41
2021/12/07 10:21:05;;;;;;;22.60;14.20;;;3.20;99.90;;;;;;5045411;28;20221;-42
2021/12/07 10:23:36;;;;;;;27.63;14.87;;;3.20;99.90;;;;;;5065988;28;20314;-41
2021/12/07 10:26:07;;;;;;;27.30;13.97;;;3.30;99.90;;;;;;5046345;28;20238;-42
2021/12/07 10:28:37;;;;;;;26.10;13.77;;;3.30;99.90;;;;;;5056266;28;20200;-41
2021/12/07 10:31:21;;;;;;;24.17;13.87;;;3.30;99.90;;;;;;5057943;28;20698;-42
2021/12/07 10:33:52;;;;;;;24.67;14.20;;;3.30;99.90;;;;;;5051276;28;20736;-42
2021/12/07 10:36:22;;;;;;;23.57;13.20;;;3.30;99.90;;;;;;5057108;28;20207;-42
2021/12/07 10:38:54;;;;;;;22.53;13.20;;;3.40;99.90;;;;;;5051488;28;20276;-42
2021/12/07 10:41:24;;;;;;;28.30;13.70;;;3.40;99.90;;;;;;5045277;28;20210;-42
2021/12/07 10:43:55;;;;;;;25.80;13.77;;;3.40;99.90;;;;;;5070047;28;20345;-41
2021/12/07 10:46:52;;;;;;;25.07;12.80;;;3.40;99.90;;;;;;5030963;28;20216;-42
2021/12/07 10:49:39;;;;;;;25.03;14.27;;;3.40;99.90;;;;;;5059318;28;20207;-41
2021/12/07 10:52:11;;;;;;;25.60;14.23;;;3.40;99.90;;;;;;5042466;28;20227;-42
2021/12/07 10:54:42;;;;;;;25.73;13.67;;;3.50;99.90;;;;;;5053740;28;20228;-42
2021/12/07 10:57:13;;;;;;;22.83;12.57;;;3.50;99.90;;;;;;5050565;28;20204;-42
2021/12/07 10:59:41;;;;;;;24.30;13.03;;;3.40;99.90;;;;;;5059055;28;21063;-45
2021/12/07 11:02:17;;;;;;;22.87;12.67;;;3.60;99.90;;;;;;5067822;28;20226;-46
2021/12/07 11:04:44;;;;;;;22.07;13.20;;;3.60;99.90;;;;;;5053437;28;20323;-45
2021/12/07 11:07:16;;;;;;;24.80;13.17;;;3.60;99.90;;;;;;5050645;28;20314;-46
2021/12/07 11:09:50;;;;;;;23.70;13.50;;;3.60;99.90;;;;;;5063791;28;20202;-46
2021/12/07 11:12:19;;;;;;;23.50;12.40;;;3.60;99.90;;;;;;5044051;28;20217;-46
2021/12/07 11:14:50;;;;;;;23.87;12.90;;;3.60;99.90;;;;;;5052466;28;20227;-46
2021/12/07 11:17:23;;;;;;;22.20;12.97;;;3.60;99.90;;;;;;5045520;28;20409;-46
2021/12/07 11:19:50;;;;;;;32.00;14.47;;;3.70;99.90;;;;;;5056356;28;20634;-45
2021/12/07 11:22:19;;;;;;;23.63;12.97;;;3.60;99.90;;;;;;5063376;28;20456;-46
2021/12/07 11:24:47;;;;;;;24.00;12.93;;;3.70;99.90;;;;;;5047708;28;20227;-45
2021/12/07 11:30:09;;;;;;;26.53;13.33;;;3.70;99.90;;;;;;5037598;28;20218;-46
2021/12/07 11:32:38;;;;;;;29.83;13.00;;;3.70;99.90;;;;;;5037112;28;20211;-46
2021/12/07 11:35:19;;;;;;;28.87;14.30;;;3.70;99.90;;;;;;5038163;28;20222;-46
2021/12/07 11:37:47;;;;;;;27.90;12.87;;;3.70;99.90;;;;;;5056470;28;20235;-46
2021/12/07 11:40:18;;;;;;;22.10;12.07;;;3.70;99.90;;;;;;5057607;28;20210;-45
2021/12/07 11:42:46;;;;;;;27.00;13.13;;;3.70;99.90;;;;;;5052452;28;20503;-45
2021/12/07 11:45:16;;;;;;;25.63;12.50;;;3.70;99.90;;;;;;5049595;28;20215;-46
2021/12/07 11:47:47;;;;;;;26.73;12.70;;;3.70;99.90;;;;;;5072582;28;20207;-46
2021/12/07 11:50:21;;;;;;;27.20;13.97;;;3.80;99.90;;;;;;5069409;28;20199;-46
2021/12/07 11:52:49;;;;;;;24.10;13.20;;;3.70;99.90;;;;;;5066392;28;20605;-46
2021/12/07 11:55:17;;;;;;;24.47;12.13;;;3.70;99.90;;;;;;5064989;28;20209;-46
2021/12/07 11:57:46;;;;;;;24.93;13.70;;;3.80;99.90;;;;;;5037161;28;20203;-45
2021/12/07 12:00:17;;;;;;;26.27;14.27;;;3.80;99.90;;;;;;5042095;28;20200;-45
2021/12/07 12:02:45;;;;;;;31.43;14.67;;;3.80;99.90;;;;;;5028931;28;20215;-46
2021/12/07 12:05:13;;;;;;;27.53;14.13;;;3.70;99.90;;;;;;5055974;28;20250;-46
2021/12/07 12:07:41;;;;;;;27.23;13.43;;;3.80;99.90;;;;;;5062378;28;20207;-46
2021/12/07 12:10:12;;;;;;;28.73;13.93;;;3.80;99.90;;;;;;5061089;28;20218;-45
2021/12/07 12:12:53;;;;;;;27.07;14.10;;;3.80;99.90;;;;;;5042467;28;20206;-45
2021/12/07 12:15:37;;;;;;;28.43;14.83;;;3.80;99.90;;;;;;5057353;28;20219;-46
2021/12/07 12:18:13;;;;;;;23.17;13.67;;;3.80;99.90;;;;;;5047710;28;20235;-46
2021/12/07 12:20:56;;;;;;;28.60;14.07;;;3.80;99.90;;;;;;5040382;28;20208;-46
2021/12/07 12:23:33;;;;;;;25.43;12.50;;;3.90;99.90;;;;;;5066178;28;20243;-45
2021/12/07 12:26:03;;;;;;;24.60;14.13;;;3.90;99.90;;;;;;5049964;28;20341;-46
2021/12/07 12:28:35;;;;;;;26.60;13.70;;;3.90;99.90;;;;;;5036593;28;20325;-46
2021/12/07 12:31:02;;;;;;;33.30;14.47;;;3.90;99.90;;;;;;5049582;28;20223;-45
2021/12/07 12:33:44;;;;;;;23.13;13.27;;;3.90;99.90;;;;;;5031692;28;20301;-46
2021/12/07 12:36:11;;;;;;;25.33;14.17;;;4.00;99.90;;;;;;5046880;28;21519;-47
2021/12/07 12:38:46;;;;;;;28.17;14.93;;;4.00;99.90;;;;;;5061250;28;20226;-46
2021/12/07 12:41:14;;;;;;;28.47;15.00;;;4.00;99.90;;;;;;5053316;28;20206;-46
2021/12/07 12:43:44;;;;;;;25.17;14.27;;;4.00;99.90;;;;;;5040359;28;20257;-46
2021/12/07 12:46:15;;;;;;;32.23;14.03;;;4.10;99.90;;;;;;5060697;28;20296;-47
2021/12/07 12:48:48;;;;;;;26.23;14.63;;;4.10;99.90;;;;;;5055976;28;20265;-46
2021/12/07 12:51:15;;;;;;;27.70;14.00;;;4.10;99.90;;;;;;5051748;28;21326;-47
2021/12/07 12:53:43;;;;;;;28.83;14.80;;;4.10;99.90;;;;;;5070217;28;20230;-46
2021/12/07 12:56:13;;;;;;;24.70;14.27;;;4.10;99.90;;;;;;5060494;28;20210;-47
2021/12/07 12:58:43;;;;;;;27.17;14.63;;;4.10;99.90;;;;;;5028255;28;20224;-47
2021/12/07 13:01:14;;;;;;;32.53;14.57;;;4.10;99.90;;;;;;5053705;28;20208;-46
2021/12/07 13:03:56;;;;;;;27.27;13.60;;;4.20;99.90;;;;;;5027847;28;20236;-46
2021/12/07 13:07:02;;;;;;;26.10;13.63;;;4.10;99.90;;;;;;5036876;28;20218;-46
2021/12/07 13:09:41;;;;;;;28.87;13.97;;;4.20;99.90;;;;;;5069981;28;20198;-47
2021/12/07 13:12:11;;;;;;;26.00;14.97;;;4.20;99.90;;;;;;5047571;28;20214;-47
2021/12/07 13:14:56;;;;;;;27.40;13.43;;;4.20;99.90;;;;;;5041772;28;20224;-47
2021/12/07 13:17:26;;;;;;;26.93;13.50;;;4.20;99.90;;;;;;5062070;28;20797;-47
2021/12/07 13:20:31;;;;;;;24.57;13.17;;;4.20;99.90;;;;;;5031069;28;20969;-46
2021/12/07 13:23:07;;;;;;;24.10;13.67;;;4.20;99.90;;;;;;4960246;28;21423;-46
2021/12/07 13:25:37;;;;;;;24.53;12.77;;;4.20;99.90;;;;;;4978947;28;20339;-46
2021/12/07 13:28:21;;;;;;;27.27;13.40;;;4.20;99.90;;;;;;5001626;28;20215;-46
2021/12/07 13:31:14;;;;;;;23.83;13.83;;;4.20;99.90;;;;;;5061942;28;20200;-46
2021/12/07 13:33:44;;;;;;;27.80;15.87;;;4.20;99.90;;;;;;5041215;28;20286;-47
2021/12/07 13:36:36;;;;;;;25.17;14.17;;;4.20;99.90;;;;;;5043495;28;20294;-47
2021/12/07 13:39:26;;;;;;;26.33;13.07;;;4.20;99.90;;;;;;5037293;28;20235;-46
2021/12/07 13:41:58;;;;;;;28.37;12.33;;;4.20;99.90;;;;;;5060079;28;20195;-47
2021/12/07 13:44:25;;;;;;;25.07;13.00;;;4.20;99.90;;;;;;5023149;28;21180;-47
2021/12/07 13:46:54;;;;;;;26.43;13.57;;;4.30;99.90;;;;;;5061478;28;20206;-47
2021/12/07 13:49:21;;;;;;;25.50;13.17;;;4.30;99.90;;;;;;5057969;28;20211;-47
2021/12/07 13:51:49;;;;;;;25.23;13.17;;;4.20;99.90;;;;;;5035192;28;20601;-46
2021/12/07 13:54:18;;;;;;;23.93;12.97;;;4.30;99.90;;;;;;5033685;28;20221;-47
2021/12/07 13:56:46;;;;;;;23.93;13.10;;;4.30;99.90;;;;;;5054769;28;20201;-47
2021/12/07 13:59:15;;;;;;;26.00;12.30;;;4.30;99.90;;;;;;5048329;28;20227;-46
2021/12/07 14:01:48;;;;;;;23.20;13.37;;;4.30;99.90;;;;;;5054229;28;20211;-46
2021/12/07 14:04:15;;;;;;;27.60;13.13;;;4.30;99.90;;;;;;5050057;28;20218;-46
2021/12/07 14:06:46;;;;;;;22.97;13.07;;;4.30;99.90;;;;;;5027062;28;20987;-46